createdAt,value
2022-10-09T16:26:00.855Z,13.00
2022-10-09T16:29:02.613Z,13.00
2022-10-09T16:32:04.219Z,12.90
2022-10-09T16:35:06.280Z,12.70
2022-10-09T16:38:07.898Z,12.80
2022-10-09T16:41:13.124Z,12.70
2022-10-09T16:44:16.811Z,12.70
2022-10-09T16:47:18.473Z,12.60
2022-10-09T16:50:22.876Z,12.50
2022-10-09T16:53:24.499Z,12.50
2022-10-09T16:56:29.632Z,12.50
2022-10-09T16:59:54.440Z,12.40
2022-10-09T17:02:56.871Z,12.40
2022-10-09T17:05:58.627Z,12.30
2022-10-09T17:09:00.302Z,12.30
2022-10-09T17:12:02.074Z,12.20
2022-10-09T17:15:05.796Z,12.20
2022-10-09T17:18:07.863Z,12.10
2022-10-09T17:21:11.957Z,12.10
2022-10-09T17:24:15.063Z,12.00
2022-10-09T17:27:16.681Z,12.00
2022-10-09T17:30:18.256Z,11.90
2022-10-09T17:33:20.151Z,11.90
2022-10-09T17:36:23.700Z,11.90
2022-10-09T17:39:28.806Z,11.90
2022-10-09T17:42:30.502Z,11.90
2022-10-09T17:45:39.273Z,11.90
2022-10-09T17:48:44.982Z,11.80
2022-10-09T17:51:47.112Z,11.80
2022-10-09T17:54:48.967Z,11.80
2022-10-09T17:57:50.934Z,11.70
2022-10-09T18:00:52.952Z,11.60
2022-10-09T18:03:54.651Z,11.60
2022-10-09T18:06:56.794Z,11.60
2022-10-09T18:09:58.568Z,11.50
2022-10-09T18:13:03.904Z,11.50
2022-10-09T18:16:07.788Z,11.50
2022-10-09T18:19:12.644Z,11.50
2022-10-09T18:22:15.304Z,11.40
2022-10-09T18:25:16.948Z,11.40
2022-10-09T18:28:19.465Z,11.40
2022-10-09T18:31:23.598Z,11.40
2022-10-09T18:34:25.277Z,11.40
2022-10-09T18:37:26.883Z,11.30
2022-10-09T18:40:28.460Z,11.30
2022-10-09T18:43:30.131Z,11.30
2022-10-09T18:46:43.671Z,11.20
2022-10-09T18:49:48.509Z,11.30
2022-10-09T18:52:50.389Z,11.30
2022-10-09T18:55:52.288Z,11.30
2022-10-09T18:58:54.059Z,11.30
2022-10-09T19:01:55.728Z,11.30
2022-10-09T19:04:57.824Z,11.20
2022-10-09T19:07:59.445Z,11.20
2022-10-09T19:11:01.128Z,11.20
2022-10-09T19:14:02.757Z,11.20
2022-10-09T19:17:04.410Z,11.20
2022-10-09T19:20:06.477Z,11.20
2022-10-09T19:23:08.446Z,11.10
2022-10-09T19:26:11.959Z,11.10
2022-10-09T19:29:13.563Z,11.10
2022-10-09T19:32:19.253Z,11.10
2022-10-09T19:35:23.201Z,11.10
2022-10-09T19:38:26.027Z,11.00
2022-10-09T19:41:30.777Z,11.00
2022-10-09T19:44:32.396Z,11.00
2022-10-09T19:47:34.090Z,11.00
2022-10-09T19:50:41.350Z,11.00
2022-10-09T19:53:45.739Z,10.90
2022-10-09T19:56:47.400Z,11.00
2022-10-09T19:59:49.102Z,10.90
2022-10-09T20:02:51.010Z,11.00
2022-10-09T20:05:52.806Z,11.00
2022-10-09T20:08:54.759Z,11.00
2022-10-09T20:11:56.424Z,11.00
2022-10-09T20:14:57.993Z,11.00
2022-10-09T20:17:59.677Z,10.90
2022-10-09T20:21:01.379Z,10.90
2022-10-09T20:24:03.226Z,10.90
2022-10-09T20:27:04.866Z,10.90
2022-10-09T20:30:07.174Z,10.90
2022-10-09T20:33:09.573Z,10.90
2022-10-09T20:36:40.738Z,10.80
2022-10-09T20:39:42.461Z,10.80
2022-10-09T20:42:44.140Z,10.80
2022-10-09T20:45:45.922Z,10.80
2022-10-09T20:48:47.784Z,10.80
2022-10-09T20:51:49.689Z,10.70
2022-10-09T20:54:51.428Z,10.80
2022-10-09T20:57:54.937Z,10.70
2022-10-09T21:00:57.197Z,10.80
2022-10-09T21:04:01.587Z,10.70
2022-10-09T21:07:03.265Z,10.70
2022-10-09T21:10:05.286Z,10.70
2022-10-09T21:13:06.924Z,10.70
2022-10-09T21:16:11.349Z,10.70
2022-10-09T21:19:13.089Z,10.60
2022-10-09T21:22:14.720Z,10.60
2022-10-09T21:25:16.331Z,10.60
2022-10-09T21:28:22.753Z,10.50
2022-10-09T21:31:27.337Z,10.50
2022-10-09T21:34:28.967Z,10.50
2022-10-09T21:37:33.525Z,10.40
2022-10-09T21:40:37.173Z,10.40
2022-10-09T21:43:38.778Z,10.40
2022-10-09T21:46:41.674Z,10.40
2022-10-09T21:49:43.331Z,10.40
2022-10-09T21:52:44.936Z,10.30
2022-10-09T21:55:46.605Z,10.30
2022-10-09T21:58:49.269Z,10.30
2022-10-09T22:01:50.905Z,10.20
2022-10-09T22:04:52.597Z,10.20
2022-10-09T22:07:54.426Z,10.20
2022-10-09T22:11:03.163Z,10.20
2022-10-09T22:14:05.783Z,10.20
2022-10-09T22:17:07.421Z,10.20
2022-10-09T22:20:09.788Z,10.20
2022-10-09T22:23:12.523Z,10.20
2022-10-09T22:26:18.039Z,10.20
2022-10-09T22:29:19.713Z,10.10
2022-10-09T22:32:24.689Z,10.10
2022-10-09T22:35:33.531Z,10.10
2022-10-09T22:38:36.684Z,10.10
2022-10-09T22:41:39.062Z,10.10
2022-10-09T22:44:40.805Z,10.00
2022-10-09T22:47:42.387Z,10.10
2022-10-09T22:50:44.009Z,10.00
2022-10-09T22:53:46.208Z,10.00
2022-10-09T22:56:47.812Z,10.00
2022-10-09T22:59:51.763Z,10.00
2022-10-09T23:02:53.375Z,10.00
2022-10-09T23:05:55.000Z,10.00
2022-10-09T23:08:56.900Z,9.90
2022-10-09T23:11:59.556Z,10.00
2022-10-09T23:15:01.181Z,10.10
2022-10-09T23:18:04.305Z,10.00
2022-10-09T23:21:08.189Z,10.00
2022-10-09T23:24:12.120Z,10.00
2022-10-09T23:27:13.927Z,9.90
2022-10-09T23:30:15.566Z,9.90
2022-10-09T23:33:17.176Z,9.90
2022-10-09T23:36:21.408Z,9.80
2022-10-09T23:39:23.027Z,9.80
2022-10-09T23:42:24.600Z,9.70
2022-10-09T23:45:26.291Z,9.70
2022-10-09T23:48:28.724Z,9.50
2022-10-09T23:51:30.832Z,9.70
2022-10-09T23:54:32.446Z,9.60
2022-10-09T23:57:34.826Z,9.60
